Time;durP1;ratioP1;P1;durP2;ratioP2;P2;SDS_P1;SDS_P2;PMS_P1;PMS_P2;Temp;Humidity;BMP_temperature;BMP_pressure;BME280_temperature;BME280_humidity;BME280_pressure;Samples;Min_cycle;Max_cycle;Signal;HPM_P1;HPM_P2
2023/07/02 04:22:32;;;;;;;6.10;2.90;;;;;;;15.79;100.00;99799.16;5109992;27;20388;-68
2023/07/02 04:24:57;;;;;;;6.57;2.72;;;;;;;15.83;100.00;99807.56;5110057;28;20442;-67
2023/07/02 04:27:23;;;;;;;3.70;2.70;;;;;;;15.83;100.00;99811.09;5109800;28;20040;-68
2023/07/02 04:29:48;;;;;;;4.43;2.58;;;;;;;15.86;100.00;99810.66;5109446;28;20040;-66
2023/07/02 04:32:14;;;;;;;4.03;2.40;;;;;;;15.86;100.00;99807.97;5109672;28;20032;-66
2023/07/02 04:34:39;;;;;;;5.20;2.58;;;;;;;15.86;100.00;99810.66;5109778;28;20042;-67
2023/07/02 04:37:05;;;;;;;4.90;2.90;;;;;;;15.82;100.00;99820.19;5109655;28;20122;-66
2023/07/02 04:39:31;;;;;;;5.63;2.85;;;;;;;15.87;100.00;99816.84;5109341;28;20117;-67
2023/07/02 04:41:56;;;;;;;6.35;3.03;;;;;;;15.88;100.00;99813.13;5109554;27;20071;-67
2023/07/02 04:44:29;;;;;;;5.18;2.65;;;;;;;15.89;100.00;99815.59;5109497;28;20031;-66
2023/07/02 04:47:01;;;;;;;4.03;2.83;;;;;;;15.86;100.00;99824.09;5109516;28;20038;-66
2023/07/02 04:49:27;;;;;;;3.70;2.65;;;;;;;15.91;100.00;99824.28;5109068;28;20032;-65
2023/07/02 04:51:53;;;;;;;5.20;2.65;;;;;;;15.92;100.00;99819.72;5109411;28;20044;-67
2023/07/02 04:54:20;;;;;;;4.25;2.45;;;;;;;15.88;100.00;99826.56;5109348;28;20453;-66
2023/07/02 04:56:46;;;;;;;5.45;2.78;;;;;;;15.90;100.00;99821.78;5109178;28;20062;-66
2023/07/02 04:59:12;;;;;;;6.05;2.45;;;;;;;15.97;100.00;99833.28;5108936;28;20031;-65
2023/07/02 05:01:37;;;;;;;4.45;2.58;;;;;;;15.98;100.00;99835.78;5109162;28;20496;-66
2023/07/02 05:04:05;;;;;;;4.60;2.63;;;;;;;16.00;100.00;99833.69;5109110;28;20036;-67
2023/07/02 05:06:30;;;;;;;5.47;3.20;;;;;;;16.05;100.00;99838.41;5109073;28;20035;-65
2023/07/02 05:08:55;;;;;;;3.78;2.67;;;;;;;16.06;100.00;99842.75;5108761;28;20507;-67
2023/07/02 05:11:21;;;;;;;6.68;2.88;;;;;;;16.13;100.00;99845.38;5108996;28;20031;-66
2023/07/02 05:13:46;;;;;;;3.80;2.10;;;;;;;16.14;100.00;99847.03;5109056;28;20544;-65
2023/07/02 05:16:11;;;;;;;8.68;2.90;;;;;;;16.21;100.00;99845.09;5108807;28;20040;-65
2023/07/02 05:18:37;;;;;;;5.82;2.72;;;;;;;16.20;100.00;99849.66;5108596;28;20036;-67
2023/07/02 05:21:02;;;;;;;5.85;2.97;;;;;;;16.23;100.00;99854.56;5108842;28;20116;-66
2023/07/02 05:23:28;;;;;;;4.88;2.80;;;;;;;16.34;100.00;99854.91;5108754;28;20481;-66
2023/07/02 05:25:53;;;;;;;5.00;3.00;;;;;;;16.32;100.00;99857.00;5108698;28;20144;-67
2023/07/02 05:28:18;;;;;;;3.70;2.40;;;;;;;16.34;100.00;99860.28;5108384;28;20404;-65
2023/07/02 05:30:44;;;;;;;4.10;2.33;;;;;;;16.35;100.00;99867.31;5108701;28;20043;-65
2023/07/02 05:33:09;;;;;;;4.32;2.00;;;;;;;16.43;100.00;99869.69;5098972;28;20048;-66
2023/07/02 05:35:35;;;;;;;4.25;2.42;;;;;;;16.43;100.00;99869.69;5094926;28;20085;-66
2023/07/02 05:38:00;;;;;;;5.20;2.20;;;;;;;16.53;100.00;99870.03;5094938;28;20036;-66
2023/07/02 05:40:25;;;;;;;3.88;2.45;;;;;;;16.47;100.00;99850.22;5094512;28;20382;-66
2023/07/02 05:42:51;;;;;;;4.05;2.33;;;;;;;16.62;100.00;99867.88;5094888;28;20054;-66
2023/07/02 05:45:16;;;;;;;6.82;3.22;;;;;;;16.71;100.00;99866.59;5094777;28;20040;-65
2023/07/02 05:47:41;;;;;;;6.03;3.03;;;;;;;16.77;100.00;99871.91;5094812;28;20040;-68
2023/07/02 05:50:07;;;;;;;3.55;2.20;;;;;;;16.79;100.00;99869.00;5094412;28;20105;-67
2023/07/02 05:52:33;;;;;;;4.00;2.47;;;;;;;16.82;100.00;99865.84;5094674;28;20550;-67
2023/07/02 05:54:58;;;;;;;5.72;2.25;;;;;;;16.96;100.00;99871.94;5094654;28;20040;-67
2023/07/02 05:57:24;;;;;;;6.45;2.70;;;;;;;16.95;100.00;99863.03;5094407;28;20071;-65
2023/07/02 05:59:49;;;;;;;5.18;2.50;;;;;;;17.05;100.00;99868.69;5093248;28;20044;-65
2023/07/02 06:02:14;;;;;;;3.75;2.28;;;;;;;17.12;100.00;99873.19;5093288;28;20036;-65
2023/07/02 06:04:40;;;;;;;3.97;2.53;;;;;;;17.21;100.00;99885.28;5094428;28;20036;-66
2023/07/02 06:07:05;;;;;;;7.80;2.40;;;;;;;17.28;100.00;99878.78;5093099;28;20382;-66
2023/07/02 06:09:32;;;;;;;5.32;2.78;;;;;;;17.32;100.00;99889.91;5092959;28;20044;-65
2023/07/02 06:11:58;;;;;;;4.90;2.70;;;;;;;17.32;100.00;99890.72;5094280;28;20036;-65
2023/07/02 06:14:25;;;;;;;5.30;2.35;;;;;;;17.41;100.00;99883.19;5094255;28;20169;-65
2023/07/02 06:16:52;;;;;;;7.18;2.92;;;;;;;17.49;100.00;99898.22;5094237;28;20503;-65
2023/07/02 06:19:17;;;;;;;5.28;2.58;;;;;;;17.53;100.00;99884.03;5093896;28;20118;-65
2023/07/02 06:21:43;;;;;;;4.85;2.97;;;;;;;17.57;100.00;99890.63;5093964;28;20453;-64
2023/07/02 06:24:08;;;;;;;5.05;2.53;;;;;;;17.61;100.00;99896.41;5094046;28;20040;-64
2023/07/02 06:26:33;;;;;;;5.88;3.08;;;;;;;17.67;100.00;99900.88;5093874;28;20480;-65
2023/07/02 06:28:59;;;;;;;6.40;3.33;;;;;;;17.73;100.00;99901.84;5093645;28;20127;-65
2023/07/02 06:31:25;;;;;;;3.58;2.65;;;;;;;17.81;99.89;99898.84;5093898;28;20049;-65
2023/07/02 06:33:50;;;;;;;4.63;2.60;;;;;;;17.86;98.25;99897.09;5093977;28;20499;-65
2023/07/02 06:36:17;;;;;;;5.18;3.03;;;;;;;17.97;98.17;99897.38;5092429;28;20035;-64
2023/07/02 06:38:43;;;;;;;6.82;3.72;;;;;;;17.95;92.75;99888.69;5093505;28;20047;-64
2023/07/02 06:41:09;;;;;;;4.90;3.03;;;;;;;18.00;94.20;99892.34;5092375;28;20127;-65
2023/07/02 06:43:34;;;;;;;7.35;3.28;;;;;;;18.01;92.32;99899.38;5093245;28;20039;-65
2023/07/02 06:46:00;;;;;;;5.57;3.50;;;;;;;18.04;91.76;99881.91;5075196;28;20122;-64
2023/07/02 06:48:25;;;;;;;5.40;3.15;;;;;;;18.21;90.32;99893.69;5093301;28;20039;-65
2023/07/02 06:50:51;;;;;;;6.43;3.63;;;;;;;18.22;88.91;99889.94;5093795;28;20035;-65
2023/07/02 06:53:16;;;;;;;8.73;3.22;;;;;;;18.26;89.30;99893.00;5093452;28;20145;-64
2023/07/02 06:55:41;;;;;;;7.45;3.45;;;;;;;18.36;88.31;99895.94;5093291;28;20036;-65
2023/07/02 06:58:07;;;;;;;6.45;3.65;;;;;;;18.39;87.96;99893.59;5093451;28;20040;-66
2023/07/02 07:00:35;;;;;;;6.43;3.90;;;;;;;18.39;87.99;99896.31;5093022;28;20131;-66
2023/07/02 07:03:02;;;;;;;9.60;4.25;;;;;;;18.49;88.28;99895.72;5093329;28;20035;-65
2023/07/02 07:05:30;;;;;;;9.27;5.10;;;;;;;18.53;85.87;99896.06;5093188;28;20040;-65
2023/07/02 07:07:55;;;;;;;7.13;3.90;;;;;;;18.62;85.19;99900.88;5093207;28;20074;-66
2023/07/02 07:10:20;;;;;;;9.90;4.47;;;;;;;18.50;84.09;99900.03;5092720;28;20067;-66
2023/07/02 07:12:46;;;;;;;9.10;4.50;;;;;;;18.51;81.96;99898.97;5093296;28;20101;-65
2023/07/02 07:15:11;;;;;;;10.00;4.95;;;;;;;18.61;81.02;99904.63;5092999;28;20032;-65
2023/07/02 07:17:36;;;;;;;8.20;4.70;;;;;;;18.57;80.21;99897.22;5091831;28;20067;-66
2023/07/02 07:20:04;;;;;;;12.07;5.28;;;;;;;18.59;80.55;99898.66;5091341;28;20512;-65
2023/07/02 07:22:30;;;;;;;11.90;5.13;;;;;;;18.58;78.70;99905.13;5092852;28;20543;-66
2023/07/02 07:24:55;;;;;;;7.47;4.28;;;;;;;18.67;78.07;99903.72;5092850;28;20122;-66
2023/07/02 07:27:21;;;;;;;11.95;5.57;;;;;;;18.84;75.45;99900.31;5092811;28;20039;-66
2023/07/02 07:29:46;;;;;;;10.77;5.38;;;;;;;18.84;76.02;99898.44;5092531;28;20497;-65
2023/07/02 07:32:11;;;;;;;10.50;5.25;;;;;;;18.92;72.43;99906.19;5092825;28;20032;-65
2023/07/02 07:34:37;;;;;;;9.90;5.40;;;;;;;18.97;74.32;99900.06;5092703;28;20393;-65
2023/07/02 07:37:02;;;;;;;8.10;4.55;;;;;;;18.96;71.66;99895.72;5092597;28;20039;-65
2023/07/02 07:39:28;;;;;;;10.02;5.28;;;;;;;19.18;72.15;99906.75;5092271;28;20047;-64
2023/07/02 07:41:53;;;;;;;8.45;4.78;;;;;;;19.25;69.99;99908.25;5092475;28;20389;-64
2023/07/02 07:44:19;;;;;;;9.43;5.10;;;;;;;19.27;69.07;99908.00;5092548;28;20040;-65
2023/07/02 07:46:44;;;;;;;9.80;5.30;;;;;;;19.28;63.41;99914.22;5092512;28;20031;-65
2023/07/02 07:49:09;;;;;;;9.23;5.55;;;;;;;19.22;66.23;99908.72;5092185;28;20036;-64
2023/07/02 07:51:35;;;;;;;12.25;5.95;;;;;;;19.29;65.23;99913.97;5092431;28;20461;-64
2023/07/02 07:54:02;;;;;;;9.60;5.18;;;;;;;19.32;64.99;99908.13;5074447;28;20396;-64
2023/07/02 07:56:27;;;;;;;11.93;6.25;;;;;;;19.29;66.78;99905.06;5092077;28;20373;-64
2023/07/02 07:58:53;;;;;;;12.02;6.90;;;;;;;19.34;66.56;99913.28;5090775;28;20106;-63
2023/07/02 08:01:18;;;;;;;12.18;6.47;;;;;;;19.38;66.72;99904.47;5092288;28;20082;-64
2023/07/02 08:03:44;;;;;;;12.75;6.93;;;;;;;19.51;68.55;99908.78;5092291;28;20047;-66
2023/07/02 08:06:09;;;;;;;12.60;6.35;;;;;;;19.79;66.45;99903.41;5092283;28;20047;-63
2023/07/02 08:08:34;;;;;;;12.05;7.10;;;;;;;19.84;65.14;99912.69;5090492;28;20051;-66
2023/07/02 08:11:00;;;;;;;12.20;6.88;;;;;;;19.94;66.13;99912.84;5074206;28;20118;-66
2023/07/02 08:13:25;;;;;;;11.95;6.40;;;;;;;20.07;63.55;99901.72;5092286;28;20119;-64
2023/07/02 08:15:51;;;;;;;13.68;7.05;;;;;;;20.13;63.19;99910.75;5074073;28;20181;-64
2023/07/02 08:18:16;;;;;;;13.68;7.50;;;;;;;20.25;64.48;99906.91;5090614;28;20043;-66
2023/07/02 08:20:41;;;;;;;14.73;7.15;;;;;;;20.17;64.16;99907.31;5091589;28;20205;-65
2023/07/02 08:23:07;;;;;;;11.70;6.68;;;;;;;20.35;64.76;99902.75;5090860;28;20036;-65
2023/07/02 08:25:32;;;;;;;10.52;6.10;;;;;;;20.51;64.08;99897.34;5090767;28;20075;-65
2023/07/02 08:27:58;;;;;;;12.13;6.88;;;;;;;20.59;63.62;99905.06;5092035;28;20089;-65
2023/07/02 08:30:23;;;;;;;12.93;6.32;;;;;;;20.55;63.08;99909.34;5091705;28;20044;-65
2023/07/02 08:32:48;;;;;;;12.35;6.80;;;;;;;20.72;62.12;99903.91;5091992;28;20067;-65
2023/07/02 08:35:14;;;;;;;17.33;7.65;;;;;;;20.82;61.27;99898.66;5091880;28;20491;-65
2023/07/02 08:37:39;;;;;;;12.40;7.00;;;;;;;20.82;58.07;99901.34;5091841;28;20052;-65
2023/07/02 08:40:06;;;;;;;15.13;7.15;;;;;;;20.77;57.10;99887.75;5091675;28;20082;-65
2023/07/02 08:42:33;;;;;;;15.18;8.43;;;;;;;20.85;59.09;99898.13;5090445;28;20036;-65
2023/07/02 08:44:59;;;;;;;13.02;7.18;;;;;;;20.85;59.42;99902.72;5091884;28;20059;-63
2023/07/02 08:47:25;;;;;;;14.30;6.35;;;;;;;20.98;60.21;99906.97;5091761;28;20032;-65
2023/07/02 08:49:51;;;;;;;11.00;6.70;;;;;;;21.19;60.08;99903.50;5091540;28;20020;-65
2023/07/02 08:52:16;;;;;;;14.93;7.38;;;;;;;21.16;58.88;99898.56;5092235;28;20032;-65
2023/07/02 08:54:42;;;;;;;14.00;6.90;;;;;;;21.30;58.61;99909.88;5091756;28;20078;-65
2023/07/02 08:57:09;;;;;;;11.07;6.78;;;;;;;21.43;58.87;99909.50;5091865;28;20036;-65
2023/07/02 08:59:36;;;;;;;13.40;6.95;;;;;;;21.50;59.84;99904.69;5091369;28;20043;-65
2023/07/02 09:02:01;;;;;;;11.82;7.10;;;;;;;21.55;56.57;99906.66;5091652;28;20385;-65
2023/07/02 09:04:28;;;;;;;9.48;6.25;;;;;;;21.68;60.37;99907.06;5091644;28;20039;-65
2023/07/02 09:07:10;;;;;;;12.40;7.35;;;;;;;21.73;57.22;99913.63;5091506;28;20076;-65
2023/07/02 09:09:49;;;;;;;12.98;7.22;;;;;;;21.98;56.01;99915.81;5095482;28;20036;-65
2023/07/02 09:12:25;;;;;;;12.40;6.70;;;;;;;22.05;56.16;99905.56;5095398;28;20048;-64
2023/07/02 09:15:01;;;;;;;13.55;7.07;;;;;;;22.19;55.54;99904.09;5094232;28;20032;-64
2023/07/02 09:17:32;;;;;;;11.23;6.60;;;;;;;22.08;53.98;99924.03;5095147;28;20508;-64
2023/07/02 09:20:00;;;;;;;10.73;6.30;;;;;;;21.77;55.42;99918.28;5095020;28;20032;-64
2023/07/02 09:22:26;;;;;;;11.27;6.85;;;;;;;21.87;54.92;99910.25;5095060;28;20062;-64
2023/07/02 09:24:59;;;;;;;14.15;7.05;;;;;;;22.17;55.84;99928.78;5095093;28;20067;-65
2023/07/02 09:27:37;;;;;;;12.30;6.25;;;;;;;22.29;54.14;99914.19;5095110;28;20675;-65
2023/07/02 09:30:13;;;;;;;;;;;;;;;22.39;53.73;99912.41;5094860;28;20027;-64
2023/07/02 09:32:39;;;;;;;10.90;7.20;;;;;;;22.79;56.58;99911.06;5095023;28;20381;-64
2023/07/02 09:35:05;;;;;;;14.40;7.00;;;;;;;22.89;52.10;99903.03;5095039;28;20067;-65
2023/07/02 09:37:31;;;;;;;10.13;6.28;;;;;;;22.93;52.67;99901.41;5095027;28;20064;-65
2023/07/02 09:39:57;;;;;;;12.32;7.13;;;;;;;22.88;52.38;99912.22;5094963;28;20028;-65
2023/07/02 09:42:24;;;;;;;11.45;6.75;;;;;;;23.11;49.59;99893.91;5094999;28;20397;-65
2023/07/02 09:44:53;;;;;;;12.20;6.68;;;;;;;23.28;49.99;99898.06;5095316;28;20393;-65
2023/07/02 09:47:21;;;;;;;13.23;6.47;;;;;;;23.11;51.89;99902.06;5093646;28;20485;-65
2023/07/02 09:49:53;;;;;;;;;;;;;;;23.37;52.39;99898.38;5095208;28;20388;-65
2023/07/02 09:52:19;;;;;;;12.20;6.47;;;;;;;23.32;51.56;99895.63;5093570;28;19923;-65
2023/07/02 09:54:45;;;;;;;14.38;7.00;;;;;;;23.51;49.83;99899.50;5094646;28;20040;-65
2023/07/02 09:57:11;;;;;;;11.18;6.85;;;;;;;23.42;47.65;99895.66;5094572;28;20145;-65
2023/07/02 09:59:38;;;;;;;10.25;6.70;;;;;;;23.11;51.84;99893.91;5094189;28;20081;-65
2023/07/02 10:02:04;;;;;;;;;;;;;;;23.33;48.41;99894.53;5094957;28;20043;-65
2023/07/02 10:04:40;;;;;;;14.50;7.28;;;;;;;23.36;51.77;99887.75;5094381;28;20296;-65
2023/07/02 10:07:05;;;;;;;11.38;6.85;;;;;;;23.42;51.34;99892.94;5094347;28;20032;-65
2023/07/02 10:09:37;;;;;;;12.35;7.05;;;;;;;23.24;51.45;99896.94;5093971;28;20116;-65
2023/07/02 10:12:20;;;;;;;13.52;7.38;;;;;;;22.89;55.22;99894.88;5094205;28;20048;-65
2023/07/02 10:14:47;;;;;;;15.60;8.25;;;;;;;22.68;53.75;99902.03;5094380;28;20114;-65
2023/07/02 10:17:33;;;;;;;15.02;7.68;;;;;;;22.77;53.54;99899.66;5094188;28;20369;-66
2023/07/02 10:20:00;;;;;;;13.68;6.97;;;;;;;22.68;54.48;99891.16;5093697;28;20035;-65
2023/07/02 10:22:26;;;;;;;11.90;6.75;;;;;;;22.39;53.72;99896.13;5094057;28;20511;-65
2023/07/02 10:25:05;;;;;;;13.13;6.90;;;;;;;22.35;54.69;99892.28;5094265;28;20068;-65
2023/07/02 10:27:38;;;;;;;12.27;7.20;;;;;;;22.31;55.57;99893.91;5094078;28;20071;-65
2023/07/02 10:30:05;;;;;;;13.10;6.93;;;;;;;22.47;54.31;99884.78;5093691;28;20039;-65
2023/07/02 10:32:33;;;;;;;13.27;7.43;;;;;;;22.42;53.99;99887.44;5093833;28;20440;-65
2023/07/02 10:35:01;;;;;;;11.40;6.88;;;;;;;22.42;52.45;99881.22;5093876;28;20032;-64
2023/07/02 10:37:26;;;;;;;14.75;8.20;;;;;;;22.36;53.88;99885.78;5093749;28;20063;-64
2023/07/02 10:39:52;;;;;;;17.65;7.50;;;;;;;22.33;53.26;99880.88;5093530;28;20127;-65
2023/07/02 10:42:17;;;;;;;14.90;6.75;;;;;;;22.45;53.31;99895.09;5093711;28;20036;-65
2023/07/02 10:44:49;;;;;;;12.73;7.38;;;;;;;22.67;52.44;99886.81;5093632;28;20096;-65
2023/07/02 10:47:14;;;;;;;13.23;7.13;;;;;;;23.38;51.11;99885.59;5093569;28;20051;-65
2023/07/02 10:49:40;;;;;;;12.10;6.53;;;;;;;24.03;47.79;99878.69;5093254;28;20024;-65
2023/07/02 10:52:07;;;;;;;14.23;6.50;;;;;;;24.74;47.82;99878.69;5093399;28;20044;-65
2023/07/02 10:54:45;;;;;;;11.35;6.30;;;;;;;24.83;44.98;99890.66;5093137;28;20039;-64
2023/07/02 10:57:14;;;;;;;12.90;6.60;;;;;;;24.97;45.72;99879.16;5093415;28;20035;-65
2023/07/02 10:59:40;;;;;;;11.25;6.18;;;;;;;24.90;44.91;99874.00;5093114;28;20036;-64
2023/07/02 11:02:06;;;;;;;16.33;7.40;;;;;;;24.98;45.14;99881.66;5093302;28;20031;-64
2023/07/02 11:04:33;;;;;;;11.48;6.25;;;;;;;24.92;42.39;99879.22;5093322;28;20517;-64
2023/07/02 11:06:59;;;;;;;12.35;7.20;;;;;;;25.27;42.56;99878.28;5093175;28;20135;-63
2023/07/02 11:09:25;;;;;;;11.32;7.00;;;;;;;25.89;41.51;99874.19;5092889;28;20043;-64
2023/07/02 11:11:54;;;;;;;11.80;6.90;;;;;;;26.46;42.15;99872.63;5093031;28;20431;-64
2023/07/02 11:14:34;;;;;;;12.98;7.18;;;;;;;26.96;39.57;99871.31;5093271;28;20482;-64
2023/07/02 11:17:03;;;;;;;11.55;6.40;;;;;;;27.53;37.31;99863.25;5093046;28;20093;-64
2023/07/02 11:19:29;;;;;;;9.63;6.07;;;;;;;27.75;36.33;99865.41;5092723;28;20098;-66
2023/07/02 11:21:57;;;;;;;11.57;6.53;;;;;;;27.92;36.41;99864.91;5092818;28;20511;-63
2023/07/02 11:24:36;;;;;;;12.00;6.88;;;;;;;28.20;37.36;99872.09;5092901;28;20089;-65
2023/07/02 11:27:05;;;;;;;13.05;7.60;;;;;;;27.88;37.23;99874.81;5092877;28;20067;-65
2023/07/02 11:29:32;;;;;;;12.65;6.70;;;;;;;27.88;37.79;99870.16;5092505;28;20028;-67
2023/07/02 11:32:10;;;;;;;12.75;8.45;;;;;;;27.52;38.40;99859.72;5092329;28;20115;-64
2023/07/02 11:34:36;;;;;;;12.93;7.53;;;;;;;26.89;38.30;99861.84;5092766;28;20036;-65
2023/07/02 11:37:04;;;;;;;16.45;7.57;;;;;;;26.33;40.59;99867.81;5092658;28;20036;-65
2023/07/02 11:39:29;;;;;;;11.10;6.80;;;;;;;26.51;40.32;99859.75;5092588;28;20430;-65
2023/07/02 11:41:55;;;;;;;10.48;6.75;;;;;;;26.93;39.80;99855.50;5092668;28;20111;-66
2023/07/02 11:44:20;;;;;;;14.63;7.05;;;;;;;27.00;39.73;99852.44;5091407;28;20121;-65
2023/07/02 11:46:47;;;;;;;13.77;6.72;;;;;;;26.69;40.03;99854.69;5092431;28;20127;-64
2023/07/02 11:49:13;;;;;;;14.77;7.05;;;;;;;26.35;37.55;99854.72;5091000;28;20104;-63
2023/07/02 11:51:39;;;;;;;14.13;7.40;;;;;;;26.38;37.73;99859.59;5092389;28;20484;-64
2023/07/02 11:54:05;;;;;;;13.33;6.90;;;;;;;26.34;38.42;99848.41;5092485;28;20044;-66
2023/07/02 11:56:31;;;;;;;11.82;6.88;;;;;;;27.15;38.77;99846.78;5092350;28;20476;-66
2023/07/02 11:58:57;;;;;;;13.93;6.60;;;;;;;27.53;36.93;99852.31;5092133;28;20044;-66
2023/07/02 12:01:23;;;;;;;12.80;7.07;;;;;;;28.12;36.91;99838.03;5092426;28;20255;-65
2023/07/02 12:03:48;;;;;;;13.38;7.40;;;;;;;28.42;38.36;99829.59;5092560;28;20036;-65
2023/07/02 12:06:14;;;;;;;12.30;6.93;;;;;;;28.60;34.45;99842.41;5092195;28;20118;-64
2023/07/02 12:08:39;;;;;;;11.50;6.60;;;;;;;28.80;33.55;99842.00;5091970;28;20047;-66
2023/07/02 12:11:05;;;;;;;11.68;6.53;;;;;;;29.19;33.68;99840.72;5092171;28;20089;-65
2023/07/02 12:13:30;;;;;;;13.63;7.60;;;;;;;28.89;33.36;99840.22;5092304;28;20036;-65
2023/07/02 12:15:55;;;;;;;12.70;7.13;;;;;;;28.70;32.43;99831.28;5092105;28;20042;-66
2023/07/02 12:18:21;;;;;;;11.80;7.18;;;;;;;28.73;33.42;99833.38;5092062;28;20043;-65
2023/07/02 12:20:46;;;;;;;13.85;7.18;;;;;;;28.99;35.19;99838.41;5092431;28;20484;-65
2023/07/02 12:23:11;;;;;;;10.15;6.82;;;;;;;28.10;34.13;99839.41;5092074;28;20451;-65
2023/07/02 12:25:38;;;;;;;13.40;7.60;;;;;;;27.56;34.06;99829.81;5092024;28;20081;-66
2023/07/02 12:28:04;;;;;;;10.88;7.00;;;;;;;27.49;33.95;99832.13;5092079;28;20096;-64
2023/07/02 12:30:30;;;;;;;13.83;7.50;;;;;;;27.62;35.79;99831.38;5091671;28;20047;-65
2023/07/02 12:32:55;;;;;;;13.95;7.10;;;;;;;28.35;35.14;99830.78;5090094;28;20032;-63
2023/07/02 12:35:21;;;;;;;15.73;7.15;;;;;;;29.06;33.12;99827.84;5085550;28;20493;-65
2023/07/02 12:37:50;;;;;;;12.10;7.07;;;;;;;29.58;33.02;99825.63;5091647;28;20423;-64
2023/07/02 12:40:17;;;;;;;11.07;6.93;;;;;;;29.69;34.55;99827.03;5091505;28;20039;-65
2023/07/02 12:42:44;;;;;;;12.23;7.90;;;;;;;29.37;32.22;99834.28;5093020;28;20063;-66
2023/07/02 12:45:11;;;;;;;11.25;6.68;;;;;;;29.30;31.91;99825.69;5095761;28;20040;-65
2023/07/02 12:47:38;;;;;;;15.05;7.35;;;;;;;29.49;31.22;99842.00;5095739;28;20040;-66
2023/07/02 12:50:04;;;;;;;12.20;6.63;;;;;;;29.59;30.12;99821.75;5095440;28;20501;-65
2023/07/02 12:52:32;;;;;;;10.18;6.65;;;;;;;30.19;30.18;99819.50;5090531;28;20036;-65
2023/07/02 12:54:57;;;;;;;12.48;6.60;;;;;;;30.35;29.35;99828.16;5075393;28;20456;-64
2023/07/02 12:57:23;;;;;;;14.30;6.72;;;;;;;30.42;29.89;99819.47;5075784;28;20044;-66
2023/07/02 12:59:48;;;;;;;11.15;6.70;;;;;;;30.46;29.63;99813.03;5075003;28;20076;-67
2023/07/02 13:02:14;;;;;;;12.25;7.15;;;;;;;30.87;29.13;99811.91;5075159;28;20138;-62
2023/07/02 13:04:39;;;;;;;11.07;6.45;;;;;;;31.02;28.56;99821.66;5075782;28;20040;-63
2023/07/02 13:07:06;;;;;;;10.85;6.53;;;;;;;30.42;27.46;99814.78;5091614;28;20051;-64
2023/07/02 13:09:31;;;;;;;12.05;6.57;;;;;;;30.16;27.65;99811.88;5094311;28;20028;-63
2023/07/02 13:11:56;;;;;;;15.25;6.38;;;;;;;30.45;29.32;99816.06;5095262;28;20036;-64
2023/07/02 13:14:22;;;;;;;15.95;7.60;;;;;;;29.99;30.99;99818.06;5095248;28;20030;-63
2023/07/02 13:16:47;;;;;;;13.73;7.65;;;;;;;29.77;31.32;99818.03;5095183;28;20027;-64
2023/07/02 13:19:13;;;;;;;13.10;7.03;;;;;;;29.67;31.61;99821.84;5094227;28;20040;-64
2023/07/02 13:21:38;;;;;;;11.93;7.55;;;;;;;29.07;29.13;99813.81;5095214;28;20097;-61
2023/07/02 13:24:04;;;;;;;12.05;6.50;;;;;;;29.17;31.18;99808.13;5095267;28;20044;-54
2023/07/02 13:26:30;;;;;;;11.38;5.88;;;;;;;28.69;30.69;99799.50;5095125;28;20044;-50
2023/07/02 13:28:55;;;;;;;13.82;6.90;;;;;;;28.39;31.56;99801.69;5094232;28;20028;-52
2023/07/02 13:31:21;;;;;;;10.40;5.85;;;;;;;28.16;31.47;99805.38;5094853;28;20032;-53
2023/07/02 13:33:46;;;;;;;12.82;6.80;;;;;;;27.92;32.33;99788.28;5094523;28;20461;-51
2023/07/02 13:36:11;;;;;;;11.60;7.22;;;;;;;27.83;33.69;99799.88;5074456;28;20043;-53
2023/07/02 13:38:37;;;;;;;9.55;6.03;;;;;;;27.53;33.23;99801.16;5073714;28;20048;-50
2023/07/02 13:41:03;;;;;;;12.88;7.10;;;;;;;27.33;34.38;99798.72;5074604;28;20016;-52
2023/07/02 13:43:28;;;;;;;14.77;6.82;;;;;;;27.52;34.42;99798.72;5074635;28;20048;-51
2023/07/02 13:45:53;;;;;;;10.55;6.20;;;;;;;27.36;33.69;99798.13;5074357;28;20052;-51
2023/07/02 13:48:19;;;;;;;11.43;5.70;;;;;;;27.16;32.05;99796.47;5073949;28;20043;-50
2023/07/02 13:50:44;;;;;;;12.90;7.20;;;;;;;27.18;33.96;99802.44;5074079;28;20094;-47
2023/07/02 13:53:10;;;;;;;10.40;6.90;;;;;;;27.50;33.86;99798.19;5073978;28;20448;-52
2023/07/02 13:55:35;;;;;;;12.10;6.22;;;;;;;27.31;34.37;99804.47;5074327;28;20032;-62
2023/07/02 13:58:01;;;;;;;12.13;6.10;;;;;;;27.21;33.21;99799.16;5074389;28;20034;-63
2023/07/02 14:00:27;;;;;;;11.90;6.07;;;;;;;27.13;33.66;99796.28;5073524;28;20120;-63
2023/07/02 14:02:53;;;;;;;15.37;5.90;;;;;;;27.21;33.64;99796.41;5074341;28;20115;-62
2023/07/02 14:05:19;;;;;;;12.40;6.43;;;;;;;27.17;34.39;99800.03;5073954;28;20815;-61
2023/07/02 14:07:45;;;;;;;11.60;6.33;;;;;;;27.13;32.18;99794.34;5074202;28;20098;-60
2023/07/02 14:10:12;;;;;;;10.88;6.32;;;;;;;27.10;33.46;99797.66;5073388;28;20489;-61
2023/07/02 14:12:37;;;;;;;;;;;;;;;27.23;33.83;99793.38;5074442;28;20036;-61
2023/07/02 14:15:03;;;;;;;12.50;6.80;;;;;;;27.15;34.17;99794.03;5074036;28;19917;-59
2023/07/02 14:17:28;;;;;;;11.25;5.95;;;;;;;27.19;33.16;99790.44;5073809;28;20075;-60
2023/07/02 14:19:54;;;;;;;14.48;6.32;;;;;;;27.08;33.65;99797.13;5073256;28;20123;-60
2023/07/02 14:22:19;;;;;;;12.20;6.35;;;;;;;26.97;33.80;99801.88;5074057;28;20036;-62
2023/07/02 14:24:45;;;;;;;12.63;6.97;;;;;;;26.89;33.63;99788.06;5073903;28;20397;-61
2023/07/02 14:27:10;;;;;;;11.60;6.18;;;;;;;26.83;33.76;99798.22;5073749;28;20032;-61
2023/07/02 14:29:35;;;;;;;13.35;6.90;;;;;;;26.48;32.64;99796.72;5073402;28;20508;-61
2023/07/02 14:32:01;;;;;;;14.43;6.95;;;;;;;26.59;35.40;99787.28;5073684;28;20123;-61
2023/07/02 14:34:27;;;;;;;10.43;6.35;;;;;;;26.59;33.88;99790.03;5073653;28;20040;-61
2023/07/02 14:36:52;;;;;;;13.40;6.40;;;;;;;26.61;34.72;99800.69;5073742;28;20036;-62
2023/07/02 14:39:18;;;;;;;14.00;6.47;;;;;;;26.52;33.74;99784.09;5073364;28;20392;-62
2023/07/02 14:41:43;;;;;;;13.20;6.82;;;;;;;26.43;34.66;99803.03;5073649;28;20044;-61
2023/07/02 14:44:08;;;;;;;11.90;6.35;;;;;;;26.25;35.83;99792.81;5073519;28;20412;-61
2023/07/02 14:46:34;;;;;;;14.73;6.95;;;;;;;26.33;34.46;99786.72;5071966;28;20118;-62
2023/07/02 14:48:59;;;;;;;12.70;6.88;;;;;;;26.25;34.63;99788.16;5071978;28;20370;-62
2023/07/02 14:51:25;;;;;;;17.95;7.55;;;;;;;26.47;34.77;99774.06;5073229;28;20087;-61
2023/07/02 14:53:51;;;;;;;14.32;7.68;;;;;;;26.21;34.90;99783.56;5073232;28;20166;-65
2023/07/02 14:56:17;;;;;;;12.82;6.07;;;;;;;26.25;33.69;99785.44;5073149;28;20090;-65
2023/07/02 14:58:42;;;;;;;16.98;7.38;;;;;;;26.20;34.21;99793.66;5072025;28;20043;-65
2023/07/02 15:01:07;;;;;;;12.15;6.20;;;;;;;26.18;33.66;99790.41;5073069;28;20033;-65
2023/07/02 15:03:33;;;;;;;12.07;5.53;;;;;;;26.08;33.58;99790.53;5073121;28;20175;-65
2023/07/02 15:06:24;;;;;;;11.35;6.45;;;;;;;26.08;34.40;99792.41;5072113;28;20040;-64
2023/07/02 15:08:50;;;;;;;12.75;6.65;;;;;;;26.07;33.98;99794.34;5070680;28;20049;-64
2023/07/02 15:11:17;;;;;;;12.30;6.25;;;;;;;26.01;34.62;99790.03;5071559;28;20508;-64
2023/07/02 15:13:42;;;;;;;12.98;7.38;;;;;;;26.01;35.87;99795.47;5072824;28;20445;-64
2023/07/02 15:16:09;;;;;;;12.85;6.20;;;;;;;26.05;35.52;99791.09;5072791;28;20048;-65
2023/07/02 15:18:35;;;;;;;;;;;;;;;26.11;35.15;99795.41;5072090;28;20219;-66
2023/07/02 15:21:00;;;;;;;12.93;6.45;;;;;;;26.10;34.90;99780.13;5072765;28;20391;-65
2023/07/02 15:23:28;;;;;;;12.68;6.13;;;;;;;26.08;34.86;99790.53;5072736;28;20033;-66
2023/07/02 15:25:55;;;;;;;11.57;6.75;;;;;;;25.97;34.28;99789.78;5072613;28;20044;-65
2023/07/02 15:28:21;;;;;;;13.68;7.18;;;;;;;25.98;35.33;99785.97;5072786;28;20028;-65
2023/07/02 15:30:55;;;;;;;16.38;6.57;;;;;;;25.88;34.73;99775.13;5072947;28;20373;-66
2023/07/02 15:33:21;;;;;;;13.20;6.70;;;;;;;25.97;35.17;99784.34;5072591;28;20036;-65
2023/07/02 15:35:47;;;;;;;13.15;6.60;;;;;;;25.94;34.58;99784.91;5072452;28;20085;-65
2023/07/02 15:38:12;;;;;;;12.82;6.53;;;;;;;25.94;34.71;99789.53;5072381;28;20032;-65
2023/07/02 15:40:38;;;;;;;15.55;7.60;;;;;;;25.76;35.03;99793.78;5072235;28;20041;-65
2023/07/02 15:43:03;;;;;;;12.88;6.18;;;;;;;25.64;33.77;99776.94;5072195;28;20079;-65
2023/07/02 15:45:29;;;;;;;13.52;6.53;;;;;;;25.62;35.19;99788.13;5072270;28;20048;-66